Terminal Aerodrome Forecast
Issued by NWS

Home | Current Version | Previous Version | Graphics & Text | Print | Product List | Glossary On
Versions: 1 2 3 4 5 6 7 8 9 10 11 12 13
803
FTUS45 KGGW 221140
TAFSDY
TAF
KSDY 221140Z 2212/2312 01010KT 3SM -SN SCT003 OVC007
     FM222000 01010KT P6SM OVC018
     FM230100 02006KT P6SM SCT013 OVC015=

USA.gov is the U.S. government's official web portal to all federal, state and local government web resources and services.